Latest Weather Observations for Douglas River

IDD60801

Issued at 4:11 am CST Tuesday 22 October 2019 (issued every 10 minutes, with the page automatically refreshed every 10 minutes)

About weather observations | Map of weather stations | Latest weather observations for NT | Other Formats
Station Details ID: 014901 Name: DOUGLAS RIVER RESEARCH FARM Lat: -13.83 Lon: 131.19 Height: 42.8 m
Data from the previous 72 hours. | See also: Recent months at Douglas River
Date/Time
CST
Temp
°C
App
Temp
°C
Dew
Point
°C
Rel
Hum
%
Delta-T
°C
Wind Press
QNH
hPa
Press
MSL
hPa
Rain since
9am
mm
Dir  Spd
km/h
Gust
km/h
Spd
kts
Gust
kts
22/04:00am 22.0 25.6 20.6 92 0.9 NE 2 7 1 4 1010.5 1010.2 0.0
22/03:30am 22.0 26.0 20.5 91 1.0 CALM 0 0 0 0 1010.3 1010.0 0.0
22/03:00am 21.9 25.7 20.2 90 1.1 CALM 0 0 0 0 1010.4 1010.1 0.0
22/02:30am 22.2 26.0 20.1 88 1.4 CALM 0 0 0 0 1010.5 1010.2 0.0
22/02:00am 22.8 25.7 20.7 88 1.4 NNE 6 7 3 4 1010.7 1010.4 0.0
22/01:30am 22.9 26.2 21.4 91 1.0 NE 6 7 3 4 1010.9 1010.6 0.0
22/01:00am 22.8 26.4 19.8 83 1.9 CALM 0 0 0 0 1011.0 1010.7 0.0
22/12:30am 23.8 27.9 20.7 83 2.0 CALM 0 0 0 0 1010.9 1010.6 0.0
22/12:00am 24.5 27.3 20.4 78 2.7 WNW 6 7 3 4 1011.0 1010.7 0.0
 
Date/Time
CST
Temp
°C
App
Temp
°C
Dew
Point
°C
Rel
Hum
%
Delta-T
°C
Wind Press
QNH
hPa
Press
MSL
hPa
Rain since
9am
mm
Dir  Spd
km/h
Gust
km/h
Spd
kts
Gust
kts
21/11:30pm 25.1 27.6 19.9 73 3.4 NE 6 7 3 4 1011.2 1010.9 0.0
21/11:00pm 25.8 27.7 19.0 66 4.4 N 7 11 4 6 1011.2 1010.9 0.0
21/10:30pm 26.9 29.1 20.5 68 4.2 NNW 9 11 5 6 1011.0 1010.7 0.0
21/10:00pm 26.8 27.9 18.1 59 5.5 NW 9 13 5 7 1010.8 1010.5 0.0
21/09:30pm 24.6 24.0 9.0 37 8.5 W 2 17 1 9 1010.5 1010.2 0.0
21/09:00pm 25.6 25.1 7.7 32 9.5 CALM 0 0 0 0 1010.0 1009.7 0.0
21/08:30pm 26.9 26.4 7.9 30 10.2 CALM 0 0 0 0 1009.7 1009.4 0.0
21/08:00pm 28.3 27.6 7.0 26 11.4 CALM 0 0 0 0 1009.6 1009.3 0.0
21/07:30pm 30.2 29.0 4.8 20 13.2 CALM 0 0 0 0 1009.3 1009.0 0.0
21/07:00pm 32.5 29.6 1.6 14 15.4 E 6 7 3 4 1009.2 1008.9 0.0
21/06:30pm 35.4 31.0 0.5 11 17.5 ESE 13 15 7 8 1008.8 1008.5 0.0
21/06:00pm 37.0 32.2 0.4 10 18.5 ESE 15 19 8 10 1008.7 1008.4 0.0
21/05:30pm 38.4 32.1 1.4 10 19.1 ESE 24 33 13 18 1008.5 1008.2 0.0
21/05:00pm 39.0 33.5 0.4 9 19.7 SE 19 26 10 14 1008.3 1008.0 0.0
21/04:30pm 40.1 33.4 1.2 9 20.2 ESE 26 35 14 19 1008.3 1008.0 0.0
21/04:00pm 40.5 32.5 1.5 9 20.4 ESE 33 46 18 25 1008.3 1008.0 0.0
21/03:30pm 40.6 32.8 1.6 9 20.5 ESE 32 50 17 27 1008.3 1008.0 0.0
21/03:06pm 40.6 34.3 1.6 9 20.4 ESE 24 46 13 25 1008.6 1008.3 0.0
21/03:05pm 40.6 34.7 1.6 9 20.4 ESE 22 43 12 23 1008.6 1008.3 0.0
21/03:00pm 40.7 35.8 1.7 9 20.5 E 17 30 9 16 1008.6 1008.3 0.0
21/02:30pm 41.1 33.8 0.3 8 21.1 ESE 28 41 15 22 1008.9 1008.6 0.0
21/02:05pm 40.9 33.6 0.2 8 20.9 SE 28 46 15 25 1009.3 1009.0 0.0
21/02:00pm 40.3 33.3 -0.3 8 20.6 ESE 26 46 14 25 1009.5 1009.2 0.0
21/01:58pm 39.8 32.4 -0.6 8 20.4 ESE 28 46 15 25 1009.5 1009.2 0.0
21/01:30pm 40.5 33.9 -0.1 8 20.8 E 24 44 13 24 1009.9 1009.6 0.0
21/01:00pm 40.3 33.8 2.8 10 20.0 ESE 26 48 14 26 1010.7 1010.4 0.0
21/12:42pm 39.5 32.8 3.6 11 19.3 E 28 48 15 26 1010.9 1010.6 0.0
21/12:30pm 39.8 33.8 5.1 12 19.1 ESE 26 43 14 23 1011.2 1010.9 0.0
21/12:00pm 38.9 31.8 5.5 13 18.4 ESE 32 44 17 24 1011.8 1011.5 0.0
21/11:30am 38.9 31.8 5.5 13 18.4 ESE 32 48 17 26 1012.3 1012.0 0.0
21/11:16am 38.3 31.5 5.0 13 18.2 E 30 48 16 26 1012.6 1012.3 0.0
21/11:00am 37.4 30.3 8.2 17 16.6 E 35 50 19 27 1012.9 1012.6 0.0
21/10:30am 37.0 31.6 9.6 19 15.9 ESE 28 54 15 29 1013.4 1013.1 0.0
21/10:28am 37.3 33.1 9.8 19 16.0 E 22 54 12 29 1013.2 1012.9 0.0
21/10:00am 33.5 33.8 18.0 39 10.0 S 13 24 7 13 1013.7 1013.4 0.0
21/09:30am 32.1 34.0 19.7 48 8.2 SSW 9 15 5 8 1013.8 1013.5 0.0
21/09:00am 30.6 33.9 21.4 58 6.2 S 6 11 3 6 1014.1 1013.8 0.0
21/08:30am 29.2 32.6 21.7 64 5.0 SSE 6 9 3 5 1014.2 1013.9 0.0
21/08:00am 27.6 32.4 22.1 72 3.7 CALM 0 4 0 2 1014.0 1013.7 0.0
21/07:30am 24.9 30.5 23.5 92 1.0 CALM 0 0 0 0 1013.8 1013.5 0.0
21/07:00am 21.8 26.0 21.0 95 0.5 CALM 0 0 0 0 1013.7 1013.4 0.0
21/06:30am 21.1 24.8 19.9 93 0.8 CALM 0 0 0 0 1013.4 1013.1 0.0
21/06:00am 21.6 25.5 20.4 93 0.8 CALM 0 0 0 0 1013.2 1012.9 0.0
21/05:30am 22.0 26.2 21.0 94 0.7 CALM 0 0 0 0 1012.9 1012.6 0.0
21/05:00am 22.4 26.6 21.0 92 0.9 CALM 0 0 0 0 1012.5 1012.2 0.0
21/04:30am 22.8 27.3 21.6 93 0.8 CALM 0 0 0 0 1012.4 1012.1 0.0
21/04:00am 23.1 27.8 21.9 93 0.8 CALM 0 0 0 0 1012.0 1011.7 0.0
21/03:30am 23.4 27.7 22.0 92 0.9 W 2 6 1 3 1011.7 1011.4 0.0
21/03:00am 23.5 26.9 21.6 89 1.3 WSW 6 7 3 4 1011.8 1011.5 0.0
21/02:30am 24.9 30.2 23.0 89 1.3 CALM 0 0 0 0 1012.0 1011.7 0.0
21/02:00am 25.6 30.5 23.1 86 1.7 N 2 7 1 4 1012.0 1011.7 0.0
21/01:30am 25.9 30.6 23.4 86 1.7 N 4 6 2 3 1012.2 1011.9 0.0
21/01:00am 26.0 30.7 23.3 85 1.8 N 4 6 2 3 1012.2 1011.9 0.0
21/12:30am 26.6 31.1 23.7 84 2.0 N 6 11 3 6 1012.4 1012.1 0.0
21/12:00am 26.7 30.8 23.2 81 2.4 N 7 9 4 5 1012.7 1012.4 0.0
 
Date/Time
CST
Temp
°C
App
Temp
°C
Dew
Point
°C
Rel
Hum
%
Delta-T
°C
Wind Press
QNH
hPa
Press
MSL
hPa
Rain since
9am
mm
Dir  Spd
km/h
Gust
km/h
Spd
kts
Gust
kts
20/11:30pm 27.3 31.9 23.1 78 2.9 N 4 6 2 3 1012.9 1012.6 0.0
20/11:00pm 27.8 33.1 23.0 75 3.3 CALM 0 7 0 4 1012.8 1012.5 0.0
20/10:30pm 28.5 32.3 22.7 71 3.9 NNW 7 11 4 6 1012.7 1012.4 0.0
20/10:00pm 29.1 32.2 22.8 69 4.3 NNW 11 17 6 9 1012.3 1012.0 0.0
20/09:30pm 29.6 32.9 22.6 66 4.8 NW 9 17 5 9 1012.2 1011.9 0.0
20/09:00pm 30.2 32.7 22.4 63 5.3 NW 13 22 7 12 1011.6 1011.3 0.0
20/08:30pm 29.9 28.9 15.6 42 8.8 NNW 15 24 8 13 1010.6 1010.3 0.0
20/08:00pm 32.1 29.6 4.0 17 14.6 S 6 7 3 4 1009.8 1009.5 0.0
20/07:30pm 32.7 28.7 2.7 15 15.3 SE 13 13 7 7 1009.3 1009.0 0.0
20/07:00pm 35.2 31.0 1.5 12 17.1 ESE 13 15 7 8 1008.9 1008.6 0.0
20/06:30pm 38.6 33.9 2.9 11 18.9 E 17 22 9 12 1008.4 1008.1 0.0
20/06:00pm 40.5 34.1 3.0 10 20.1 ESE 26 35 14 19 1008.0 1007.7 0.0
20/05:31pm 41.5 35.3 2.3 9 20.9 E 24 46 13 25 1007.9 1007.6 0.0
20/05:30pm 41.6 35.8 2.3 9 21.0 E 22 46 12 25 1007.9 1007.6 0.0
20/05:00pm 42.0 35.2 1.0 8 21.5 ESE 26 35 14 19 1007.8 1007.5 0.0
20/04:30pm 42.3 35.2 1.2 8 21.7 ESE 28 39 15 21 1007.7 1007.4 0.0
20/04:00pm 42.5 35.4 1.3 8 21.7 ESE 28 46 15 25 1007.9 1007.6 0.0
20/03:30pm 43.2 35.1 0.0 7 22.5 E 32 52 17 28 1008.1 1007.8 0.0
20/03:23pm 42.8 35.5 -0.3 7 22.2 E 28 52 15 28 1008.1 1007.8 0.0
20/03:00pm 42.7 36.0 1.5 8 21.8 E 26 43 14 23 1008.5 1008.2 0.0
20/02:48pm 43.1 36.1 1.8 8 22.0 E 28 46 15 25 1008.5 1008.2 0.0
20/02:30pm 43.2 36.6 1.9 8 22.1 E 26 41 14 22 1008.8 1008.5 0.0
20/02:00pm 43.7 36.7 2.2 8 22.3 E 28 48 15 26 1009.1 1008.8 0.0
20/01:43pm 43.0 36.0 1.7 8 22.0 ESE 28 70 15 38 1009.4 1009.1 0.0
20/01:42pm 43.5 37.2 3.7 9 21.8 ESE 26 70 14 38 1009.0 1008.7 0.0
20/01:30pm 42.6 35.7 4.6 10 21.1 ESE 30 46 16 25 1009.8 1009.5 0.0
20/01:16pm 41.6 35.2 5.2 11 20.2 E 28 48 15 26 1010.2 1009.9 0.0
20/01:00pm 41.6 36.9 7.6 13 19.6 ESE 22 41 12 22 1010.6 1010.3 0.0
20/12:30pm 40.2 34.5 6.5 13 19.0 E 26 48 14 26 1011.2 1010.9 0.0
20/12:02pm 40.1 33.0 5.3 12 19.2 ESE 32 54 17 29 1011.9 1011.6 0.0
20/12:00pm 40.1 34.2 7.5 14 18.6 ESE 28 44 15 24 1011.9 1011.6 0.0
20/11:30am 39.3 36.2 12.2 20 16.5 E 20 39 11 21 1012.5 1012.2 0.0
20/11:00am 37.8 34.9 12.4 22 15.4 E 19 39 10 21 1013.0 1012.7 0.0
20/10:30am 34.4 35.3 19.2 40 10.0 ESE 13 22 7 12 1013.8 1013.5 0.0
20/10:00am 33.1 35.8 20.6 47 8.4 SSW 7 13 4 7 1014.1 1013.8 0.0
20/09:30am 31.3 34.3 22.0 57 6.3 SSW 9 15 5 8 1014.5 1014.2 0.0
20/09:00am 30.3 33.6 22.5 63 5.3 S 9 11 5 6 1014.7 1014.4 0.0
20/08:30am 29.4 33.8 23.4 70 4.1 S 6 13 3 7 1014.7 1014.4 0.0
20/08:00am 27.4 32.5 22.6 75 3.3 CALM 0 0 0 0 1014.4 1014.1 0.0
20/07:30am 24.6 29.2 21.7 84 1.9 CALM 0 0 0 0 1014.2 1013.9 0.0
20/07:00am 22.6 26.8 20.9 90 1.1 CALM 0 0 0 0 1014.0 1013.7 0.0
20/06:30am 22.7 26.6 21.2 91 1.0 E 2 7 1 4 1013.7 1013.4 0.0
20/06:00am 22.2 25.7 20.3 89 1.2 ENE 2 6 1 3 1013.2 1012.9 0.0
20/05:30am 22.5 26.3 21.0 91 1.0 SSE 2 7 1 4 1012.8 1012.5 0.0
20/05:00am 22.7 26.7 20.6 88 1.4 CALM 0 0 0 0 1012.5 1012.2 0.0
20/04:30am 23.2 27.5 21.1 88 1.4 CALM 0 0 0 0 1012.1 1011.8 0.0
20/04:00am 22.7 26.3 19.7 83 1.9 CALM 0 0 0 0 1012.1 1011.8 0.0
20/03:30am 23.7 27.7 20.6 83 2.0 CALM 0 0 0 0 1012.2 1011.9 0.0
20/03:00am 23.7 27.6 20.4 82 2.1 CALM 0 0 0 0 1012.3 1012.0 0.0
20/02:30am 25.2 29.8 21.7 81 2.3 CALM 0 0 0 0 1012.5 1012.2 0.0
20/02:00am 25.2 28.6 20.9 77 2.8 NE 4 7 2 4 1012.8 1012.5 0.0
20/01:30am 26.6 29.9 21.4 73 3.5 N 6 9 3 5 1012.9 1012.6 0.0
20/01:00am 26.6 30.0 21.6 74 3.3 NNW 6 7 3 4 1013.2 1012.9 0.0
20/12:30am 27.2 31.7 21.5 71 3.8 CALM 0 0 0 0 1013.4 1013.1 0.0
20/12:00am 28.1 32.1 21.4 67 4.5 NNW 2 6 1 3 1013.4 1013.1 0.0
 
Date/Time
CST
Temp
°C
App
Temp
°C
Dew
Point
°C
Rel
Hum
%
Delta-T
°C
Wind Press
QNH
hPa
Press
MSL
hPa
Rain since
9am
mm
Dir  Spd
km/h
Gust
km/h
Spd
kts
Gust
kts
19/11:30pm 29.1 31.8 21.3 62 5.2 N 9 17 5 9 1013.4 1013.1 0.0
19/11:00pm 29.5 32.6 21.4 61 5.4 NNW 7 9 4 5 1013.5 1013.2 0.0
19/10:30pm 30.3 33.3 21.9 60 5.7 NNW 9 20 5 11 1013.2 1012.9 0.0
19/10:00pm 30.5 33.7 22.4 62 5.5 N 9 15 5 8 1012.8 1012.5 0.0
19/09:30pm 30.7 33.3 22.0 59 5.9 NNW 11 19 6 10 1012.3 1012.0 0.0
19/09:00pm 31.3 33.3 22.3 58 6.1 NNW 15 26 8 14 1011.8 1011.5 0.0
19/08:30pm 31.8 32.7 21.6 54 6.9 NNW 19 33 10 18 1011.0 1010.7 0.0
19/08:00pm 33.4 32.5 11.3 26 13.0 SE 7 9 4 5 1010.2 1009.9 0.0
19/07:30pm 34.9 33.1 9.3 21 14.7 SE 9 11 5 6 1009.9 1009.6 0.0
19/07:00pm 36.9 34.3 9.5 19 15.9 ESE 13 17 7 9 1009.5 1009.2 0.0
19/06:30pm 38.8 35.2 8.5 16 17.5 ESE 17 24 9 13 1009.2 1008.9 0.0
19/06:00pm 40.3 35.8 8.7 15 18.4 ESE 22 30 12 16 1008.9 1008.6 0.0
19/05:30pm 41.0 37.2 9.2 15 18.7 ESE 19 28 10 15 1008.5 1008.2 0.0
19/05:00pm 41.1 36.7 10.3 16 18.4 ESE 24 37 13 20 1008.4 1008.1 0.0
19/04:30pm 41.1 38.4 10.3 16 18.4 E 15 26 8 14 1008.3 1008.0 0.0
19/04:00pm 41.3 37.7 10.4 16 18.5 ESE 20 39 11 21 1008.7 1008.4 0.0
19/03:30pm 41.5 37.4 11.5 17 18.2 ESE 24 37 13 20 1009.1 1008.8 0.0
19/03:06pm 40.9 36.2 11.9 18 17.7 ESE 28 46 15 25 1009.3 1009.0 0.0
19/03:00pm 42.3 37.7 11.2 16 18.9 SE 26 46 14 25 1009.4 1009.1 0.0
19/02:30pm 40.6 37.5 13.3 20 17.0 SE 22 33 12 18 1009.9 1009.6 0.0
19/02:00pm 40.6 36.6 14.0 21 16.7 ESE 28 37 15 20 1010.4 1010.1 0.0
19/01:59pm 41.0 37.3 15.1 22 16.5 ESE 28 35 15 19 1010.4 1010.1 0.0
19/01:30pm 39.5 39.5 15.2 24 15.4 SE 9 17 5 9 1011.0 1010.7 0.0
19/01:00pm 39.9 38.7 16.1 24 15.3 ESE 17 28 9 15 1011.7 1011.4 0.0
19/12:30pm 37.0 38.1 17.1 31 12.9 SSE 7 13 4 7 1012.5 1012.2 0.0
19/12:00pm 37.3 38.3 17.8 31 12.7 NE 9 26 5 14 1013.3 1013.0 0.0
19/11:30am 35.8 36.3 17.5 34 11.8 E 11 22 6 12 1013.7 1013.4 0.0
19/11:00am 35.0 36.5 19.0 39 10.5 NNW 9 19 5 10 1014.2 1013.9 0.0
19/10:30am 32.5 34.9 20.1 48 8.2 S 7 17 4 9 1014.5 1014.2 0.0
19/10:00am 32.0 35.0 21.2 52 7.3 SSE 7 13 4 7 1015.0 1014.7 0.0
19/09:30am 31.3 34.9 22.3 58 6.1 WSW 7 15 4 8 1015.1 1014.8 0.0
19/09:00am 30.0 34.0 22.7 65 5.0 SSE 6 11 3 6 1015.3 1015.0 0.0
19/08:30am 28.5 32.5 22.7 71 3.9 SW 6 13 3 7 1015.4 1015.1 0.0
19/08:00am 27.3 32.2 23.1 78 2.9 SE 2 7 1 4 1015.2 1014.9 0.0
19/07:30am 24.8 29.9 22.7 88 1.4 CALM 0 0 0 0 1014.7 1014.4 0.0
19/07:00am 23.3 28.0 21.9 92 0.9 CALM 0 0 0 0 1014.4 1014.1 0.0
19/06:30am 22.4 26.7 21.2 93 0.8 CALM 0 0 0 0 1014.2 1013.9 0.0
19/06:00am 22.1 26.0 20.4 90 1.1 CALM 0 0 0 0 1013.9 1013.6 0.0
19/05:30am 22.4 26.4 20.5 89 1.2 CALM 0 0 0 0 1013.5 1013.2 0.0
19/05:00am 22.9 26.9 20.6 87 1.5 CALM 0 0 0 0 1013.1 1012.8 0.0
19/04:30am 23.4 26.4 21.3 88 1.4 NNE 7 7 4 4 1012.9 1012.6 0.0

Other formats

Comma delimited format used in spreadsheet applications
http://www.bom.gov.au/fwo/IDD60801/IDD60801.94128.axf

JavaScript Object Notation format (JSON) in row-major order
http://www.bom.gov.au/fwo/IDD60801/IDD60801.94128.json

Data quality

Most of these data are generated automatically and are frequently updated. Quality checks on data are not normally performed. It is possible for incorrect values to appear. Refer to information at About Latest Weather Observations and please check the disclaimer before using these data.